KBGR/BGR METAR and TAF weather

Enter ICAO airport designator
Station Type Date Time Source
KBGR METAR 2022/12/08 11:53 UTC NOAA

KBGR 081153Z 30011G21KT 10SM FEW035 08/05 A3002 RMK AO2 SLP166 70098 T00780050 10100 20078 53016


Station Type Date Time Source
KBGR Decoded METAR 2022/12/08 11:53 UTC NOAA

BANGOR INT'L AIRPORT, ME, United States (KBGR) 44-48N 068-49W 57M
Dec 08, 2022 - 06:53 AM EST / 2022.12.08 1153 UTC
Wind: from the WNW (300 degrees) at 13 MPH (11 KT) gusting to 24 MPH (21 KT):0
Visibility: 10 mile(s):0
Sky conditions: mostly clear
Temperature: 46.0 F (7.8 C)
Dew Point: 41.0 F (5.0 C)
Relative Humidity: 82%
Pressure (altimeter): 30.02 in. Hg (1016 hPa)
Pressure tendency: 0.05 inches (1.6 hPa) higher than three hours ago
ob: KBGR 081153Z 30011G21KT 10SM FEW035 08/05 A3002 RMK AO2 SLP166 70098 T00780050 10100 20078 53016
cycle: 12

Station Type Date Time Source
KBGR TAF 2022/12/08 12:22 UTC NOAA

TAF KBGR 081120Z 0812/0912 30010KT P6SM SCT050
FM081400 32012G20KT P6SM BKN035
FM090100 32010KT P6SM SKC

Example: see airport list